Time;durP1;ratioP1;P1;durP2;ratioP2;P2;SDS_P1;SDS_P2;PMS_P1;PMS_P2;Temp;Humidity;BMP_temperature;BMP_pressure;BME280_temperature;BME280_humidity;BME280_pressure;Samples;Min_cycle;Max_cycle;Signal;HPM_P1;HPM_P2
2023/08/31 00:00:04;;;;;;;2.10;1.90;;;19.30;73.80;;;;;;4972204;28;20023;-66
2023/08/31 00:02:29;;;;;;;2.25;2.05;;;19.30;73.70;;;;;;4979365;28;20061;-66
2023/08/31 00:04:55;;;;;;;2.30;2.10;;;19.30;73.80;;;;;;4984059;28;20027;-66
2023/08/31 00:07:21;;;;;;;2.70;2.22;;;19.30;73.80;;;;;;4985930;28;20031;-66
2023/08/31 00:09:47;;;;;;;2.42;2.22;;;19.30;73.80;;;;;;4980970;28;20073;-67
2023/08/31 00:12:13;;;;;;;3.78;1.80;;;19.30;73.80;;;;;;4984110;28;20707;-66
2023/08/31 00:14:38;;;;;;;2.63;2.03;;;19.20;73.80;;;;;;4980434;28;20137;-66
2023/08/31 00:17:05;;;;;;;1.92;1.83;;;19.30;73.90;;;;;;4981507;28;20027;-67
2023/08/31 00:19:30;;;;;;;2.35;1.88;;;19.30;73.60;;;;;;4975627;28;20077;-65
2023/08/31 00:21:55;;;;;;;2.38;2.17;;;19.30;73.60;;;;;;4978206;28;20050;-66
2023/08/31 00:24:22;;;;;;;1.98;1.80;;;19.30;73.60;;;;;;4986272;28;20043;-67
2023/08/31 00:26:50;;;;;;;2.53;2.00;;;19.20;73.70;;;;;;4977811;28;20042;-67
2023/08/31 00:29:16;;;;;;;2.13;1.90;;;19.20;74.20;;;;;;4967999;28;20030;-66
2023/08/31 00:31:42;;;;;;;2.47;2.10;;;19.30;73.70;;;;;;4983996;28;20030;-66
2023/08/31 00:34:07;;;;;;;2.83;1.83;;;19.30;73.70;;;;;;4979280;28;20062;-67
2023/08/31 00:36:33;;;;;;;1.98;1.83;;;19.30;73.70;;;;;;4982429;28;20404;-66
2023/08/31 00:39:05;;;;;;;3.05;1.95;;;19.20;73.70;;;;;;4980875;28;20122;-67
2023/08/31 00:41:31;;;;;;;2.05;1.85;;;19.30;73.70;;;;;;4982468;28;20136;-68
2023/08/31 00:43:56;;;;;;;2.22;1.98;;;19.20;73.80;;;;;;4973682;28;20113;-66
2023/08/31 00:46:22;;;;;;;1.48;1.38;;;19.30;73.70;;;;;;4986148;28;20038;-65
2023/08/31 00:48:48;;;;;;;2.08;1.88;;;19.30;73.80;;;;;;4978646;28;20038;-65
2023/08/31 00:51:13;;;;;;;2.92;1.80;;;19.20;73.70;;;;;;4979634;28;20495;-67
2023/08/31 00:53:39;;;;;;;1.80;1.70;;;19.20;73.70;;;;;;4981113;28;20038;-68
2023/08/31 00:56:05;;;;;;;1.70;1.60;;;19.20;73.60;;;;;;4976274;28;20036;-67
2023/08/31 00:58:31;;;;;;;1.98;1.83;;;19.20;73.80;;;;;;4978059;28;20026;-67
2023/08/31 01:01:03;;;;;;;2.08;1.88;;;19.20;73.80;;;;;;4986509;28;20063;-66
2023/08/31 01:03:35;;;;;;;2.47;1.80;;;19.30;73.90;;;;;;4983724;28;20040;-65
2023/08/31 01:06:31;;;;;;;1.88;1.75;;;19.20;73.60;;;;;;4985260;28;20057;-66
2023/08/31 01:09:07;;;;;;;3.15;1.65;;;19.20;73.90;;;;;;4979381;28;20034;-67
2023/08/31 01:11:49;;;;;;;2.00;1.80;;;19.20;74.00;;;;;;4983861;28;20505;-67
2023/08/31 01:14:22;;;;;;;1.65;1.50;;;19.20;73.80;;;;;;4971145;28;20073;-66
2023/08/31 01:16:49;;;;;;;3.00;1.60;;;19.20;73.70;;;;;;4980201;28;20033;-66
2023/08/31 01:19:43;;;;;;;2.17;1.67;;;19.20;73.70;;;;;;4988767;28;20124;-66
2023/08/31 01:22:14;;;;;;;2.22;1.75;;;19.20;73.80;;;;;;4979089;28;20051;-66
2023/08/31 01:24:41;;;;;;;1.60;1.38;;;19.20;73.70;;;;;;4978574;28;20832;-67
2023/08/31 01:27:06;;;;;;;1.75;1.65;;;19.20;73.90;;;;;;4986570;28;20096;-67
2023/08/31 01:29:32;;;;;;;1.55;1.35;;;19.20;73.80;;;;;;4981427;28;20066;-67
2023/08/31 01:31:58;;;;;;;1.83;1.65;;;19.20;73.80;;;;;;4979148;28;20414;-64
2023/08/31 01:34:23;;;;;;;4.18;1.75;;;19.20;73.90;;;;;;4987094;28;20560;-65
2023/08/31 01:36:56;;;;;;;2.15;1.85;;;19.20;73.90;;;;;;4981345;28;20106;-66
2023/08/31 01:39:43;;;;;;;1.98;1.50;;;19.20;73.70;;;;;;4966136;28;20166;-63
2023/08/31 01:42:11;;;;;;;1.50;1.40;;;19.20;73.90;;;;;;4983006;28;20112;-66
2023/08/31 01:44:36;;;;;;;1.35;1.20;;;19.20;73.70;;;;;;4981949;28;20050;-67
2023/08/31 01:47:05;;;;;;;3.75;1.50;;;19.20;73.70;;;;;;4982771;28;20233;-66
2023/08/31 01:49:38;;;;;;;1.70;1.45;;;19.20;73.80;;;;;;4979812;28;20035;-67
2023/08/31 01:52:04;;;;;;;2.03;1.48;;;19.20;73.90;;;;;;4984413;28;20046;-67
2023/08/31 01:54:29;;;;;;;1.52;1.42;;;19.20;73.80;;;;;;4978375;28;20042;-67
2023/08/31 01:56:55;;;;;;;1.40;1.30;;;19.20;73.90;;;;;;4986262;28;20035;-67
2023/08/31 01:59:21;;;;;;;1.35;1.25;;;19.20;73.80;;;;;;4983278;28;20034;-67
2023/08/31 02:01:46;;;;;;;2.42;1.55;;;19.20;73.90;;;;;;4978927;28;20034;-67
2023/08/31 02:04:12;;;;;;;2.15;1.40;;;19.20;73.90;;;;;;4983576;28;20101;-65
2023/08/31 02:06:37;;;;;;;1.17;1.05;;;19.20;73.80;;;;;;4978797;28;20612;-68
2023/08/31 02:09:03;;;;;;;2.20;1.45;;;19.20;74.00;;;;;;4985539;28;20035;-66
2023/08/31 02:11:29;;;;;;;1.48;1.27;;;19.20;73.80;;;;;;4984426;28;20039;-66
2023/08/31 02:13:54;;;;;;;1.42;1.25;;;19.20;73.80;;;;;;4984407;28;20042;-66
2023/08/31 02:16:19;;;;;;;2.35;1.25;;;19.20;73.80;;;;;;4988822;28;20052;-68
2023/08/31 02:18:45;;;;;;;1.90;1.08;;;19.20;73.90;;;;;;4976618;28;20037;-65
2023/08/31 02:21:10;;;;;;;1.63;1.30;;;19.20;73.80;;;;;;4979804;28;20516;-67
2023/08/31 02:23:36;;;;;;;1.27;1.17;;;19.20;73.80;;;;;;4988004;28;20121;-67
2023/08/31 02:26:01;;;;;;;1.48;1.30;;;19.20;73.80;;;;;;4988038;28;20501;-67
2023/08/31 02:28:27;;;;;;;2.15;1.40;;;19.20;73.80;;;;;;4969009;28;20035;-66
2023/08/31 02:31:00;;;;;;;3.17;1.42;;;19.10;73.70;;;;;;4976302;28;20065;-67
2023/08/31 02:33:26;;;;;;;1.30;1.10;;;19.20;73.90;;;;;;4976982;28;20034;-67
2023/08/31 02:35:52;;;;;;;1.23;1.13;;;19.20;73.80;;;;;;4976835;28;20026;-66
2023/08/31 02:38:18;;;;;;;1.30;1.20;;;19.20;73.90;;;;;;4982659;28;20034;-66
2023/08/31 02:40:46;;;;;;;1.85;1.13;;;19.20;73.80;;;;;;4977839;28;20662;-67
2023/08/31 02:43:12;;;;;;;1.25;1.15;;;19.10;73.90;;;;;;4972091;28;20117;-67
2023/08/31 02:45:37;;;;;;;1.48;1.38;;;19.10;73.80;;;;;;4977865;28;20162;-67
2023/08/31 02:48:03;;;;;;;1.52;1.38;;;19.20;74.00;;;;;;4983575;28;20030;-65
2023/08/31 02:50:29;;;;;;;1.33;1.23;;;19.10;74.00;;;;;;4981903;28;20122;-68
2023/08/31 02:52:54;;;;;;;2.25;1.30;;;19.10;73.90;;;;;;4977105;28;20030;-67
2023/08/31 02:55:21;;;;;;;1.63;1.23;;;19.20;73.90;;;;;;4983174;28;20031;-67
2023/08/31 02:57:46;;;;;;;2.58;1.73;;;19.10;73.90;;;;;;4982271;28;20417;-67
2023/08/31 03:00:12;;;;;;;1.40;1.10;;;19.10;73.70;;;;;;4981554;28;20026;-67
2023/08/31 03:02:39;;;;;;;1.30;1.20;;;19.10;74.00;;;;;;4980877;28;20493;-67
2023/08/31 03:05:04;;;;;;;2.10;1.00;;;19.10;73.80;;;;;;4975394;28;20085;-66
2023/08/31 03:07:30;;;;;;;1.80;1.60;;;19.10;73.90;;;;;;4976461;28;20525;-67
2023/08/31 03:09:55;;;;;;;1.65;1.30;;;19.10;73.90;;;;;;4980857;28;20038;-68
2023/08/31 03:12:21;;;;;;;1.40;1.30;;;19.10;74.00;;;;;;4965792;28;20031;-66
2023/08/31 03:14:48;;;;;;;1.85;1.23;;;19.10;73.90;;;;;;4977874;28;20090;-66
2023/08/31 03:17:13;;;;;;;1.58;1.40;;;19.10;74.10;;;;;;4983626;28;20045;-68
2023/08/31 03:19:39;;;;;;;1.85;1.30;;;19.10;74.00;;;;;;4979018;28;20038;-67
2023/08/31 03:22:04;;;;;;;1.50;1.40;;;19.10;74.00;;;;;;4972595;28;20474;-67
2023/08/31 03:24:32;;;;;;;1.65;1.50;;;19.00;73.60;;;;;;4978467;28;20513;-67
2023/08/31 03:26:58;;;;;;;1.30;1.20;;;19.10;74.30;;;;;;4982125;28;20041;-67
2023/08/31 03:29:23;;;;;;;1.48;1.13;;;19.10;74.10;;;;;;4984700;28;20113;-66
2023/08/31 03:31:49;;;;;;;1.85;1.30;;;19.10;74.10;;;;;;4976115;28;20119;-66
2023/08/31 03:34:15;;;;;;;2.42;2.08;;;19.10;73.90;;;;;;4962261;28;20089;-67
2023/08/31 03:36:40;;;;;;;1.55;1.35;;;19.10;74.00;;;;;;4987231;28;20026;-68
2023/08/31 03:39:06;;;;;;;1.00;0.95;;;19.10;73.70;;;;;;4984750;28;20069;-66
2023/08/31 03:41:31;;;;;;;1.50;1.40;;;19.10;74.00;;;;;;4979143;28;20485;-67
2023/08/31 03:43:57;;;;;;;1.77;1.67;;;19.10;73.60;;;;;;4980291;28;20034;-66
2023/08/31 03:46:23;;;;;;;1.38;1.10;;;19.10;73.70;;;;;;4978803;28;20097;-67
2023/08/31 03:48:48;;;;;;;1.00;0.90;;;19.10;73.70;;;;;;4974864;28;20474;-66
2023/08/31 03:51:14;;;;;;;1.73;1.63;;;19.10;73.90;;;;;;4975907;28;20084;-66
2023/08/31 03:53:39;;;;;;;1.75;1.25;;;19.00;73.80;;;;;;4973461;28;20031;-69
2023/08/31 03:56:05;;;;;;;1.30;1.20;;;19.10;73.80;;;;;;4981005;28;20667;-67
2023/08/31 03:58:31;;;;;;;1.33;1.20;;;19.10;73.80;;;;;;4982386;28;20034;-66
2023/08/31 04:00:56;;;;;;;1.50;1.40;;;19.10;73.80;;;;;;4971264;28;20035;-67
2023/08/31 04:03:22;;;;;;;2.00;1.63;;;19.10;73.70;;;;;;4983160;28;20033;-65
2023/08/31 04:05:47;;;;;;;1.83;1.50;;;19.10;73.80;;;;;;4978224;28;20055;-68
2023/08/31 04:08:13;;;;;;;1.88;1.02;;;19.00;73.90;;;;;;4959812;28;20047;-67
2023/08/31 04:10:38;;;;;;;1.15;1.05;;;19.10;73.90;;;;;;4974297;28;20785;-67
2023/08/31 04:13:04;;;;;;;1.35;1.25;;;19.00;73.70;;;;;;4981494;28;20027;-67
2023/08/31 04:15:32;;;;;;;1.38;1.25;;;19.00;73.90;;;;;;4973352;28;20085;-67
2023/08/31 04:17:57;;;;;;;1.35;1.15;;;19.10;73.70;;;;;;4972939;28;20444;-68
2023/08/31 04:20:23;;;;;;;1.83;1.42;;;19.10;73.90;;;;;;4983034;28;20084;-68
2023/08/31 04:22:48;;;;;;;1.42;1.10;;;19.00;73.90;;;;;;4973949;28;20055;-66
2023/08/31 04:25:14;;;;;;;1.50;1.20;;;19.10;73.90;;;;;;4980309;28;20075;-67
2023/08/31 04:27:40;;;;;;;1.20;1.08;;;19.00;73.90;;;;;;4982421;28;20042;-66
2023/08/31 04:30:07;;;;;;;1.90;1.08;;;19.00;73.90;;;;;;4984873;28;20037;-67
2023/08/31 04:32:32;;;;;;;1.33;1.15;;;19.00;73.80;;;;;;4985852;28;20045;-67
2023/08/31 04:34:58;;;;;;;1.35;1.08;;;19.00;73.80;;;;;;4971939;28;20026;-67
2023/08/31 04:37:23;;;;;;;1.30;0.98;;;19.00;73.80;;;;;;4979213;28;20031;-66
2023/08/31 04:39:49;;;;;;;3.47;1.08;;;19.10;73.90;;;;;;4978920;28;20042;-66
2023/08/31 04:42:16;;;;;;;1.60;1.20;;;19.00;73.80;;;;;;4978278;28;20417;-67
2023/08/31 04:44:42;;;;;;;2.33;1.00;;;19.00;73.90;;;;;;4978434;28;20097;-66
2023/08/31 04:47:08;;;;;;;1.55;1.08;;;19.00;73.80;;;;;;4977887;28;20482;-67
2023/08/31 04:49:33;;;;;;;1.33;1.10;;;19.10;74.00;;;;;;4978923;28;20039;-66
2023/08/31 04:51:59;;;;;;;1.27;1.10;;;19.00;73.90;;;;;;4981693;28;20567;-67
2023/08/31 04:54:25;;;;;;;1.92;0.90;;;19.00;73.80;;;;;;4974896;28;20486;-67
2023/08/31 04:56:51;;;;;;;1.95;1.20;;;19.10;73.90;;;;;;4984456;28;20038;-67
2023/08/31 04:59:16;;;;;;;2.70;1.30;;;19.10;73.80;;;;;;4977443;28;20611;-65
2023/08/31 05:01:42;;;;;;;2.25;1.23;;;19.00;73.80;;;;;;4980512;28;20022;-66
2023/08/31 05:04:07;;;;;;;1.35;1.20;;;19.10;73.70;;;;;;4976469;28;20027;-67
2023/08/31 05:06:33;;;;;;;2.05;1.55;;;19.00;73.90;;;;;;4981655;28;20420;-67
2023/08/31 05:08:58;;;;;;;1.95;1.10;;;19.10;73.70;;;;;;4975488;28;20137;-64
2023/08/31 05:11:24;;;;;;;1.20;0.98;;;19.10;73.80;;;;;;4974772;28;20501;-66
2023/08/31 05:13:49;;;;;;;2.83;1.20;;;19.10;73.80;;;;;;4978452;28;20137;-66
2023/08/31 05:16:15;;;;;;;1.45;1.15;;;19.00;73.80;;;;;;4984337;28;20549;-67
2023/08/31 05:18:41;;;;;;;2.47;1.77;;;19.00;73.90;;;;;;4982768;28;20434;-67
2023/08/31 05:21:06;;;;;;;2.13;1.20;;;19.00;73.90;;;;;;4979036;28;20034;-67
2023/08/31 05:23:32;;;;;;;2.08;1.10;;;19.10;73.80;;;;;;4987335;28;20445;-68
2023/08/31 05:25:58;;;;;;;1.98;1.30;;;19.10;73.80;;;;;;4981862;28;20034;-66
2023/08/31 05:28:24;;;;;;;3.05;1.35;;;19.10;73.90;;;;;;4983250;28;20053;-68
2023/08/31 05:30:54;;;;;;;2.50;1.17;;;19.10;74.00;;;;;;4985138;28;20419;-65
2023/08/31 05:33:22;;;;;;;3.60;1.63;;;19.10;73.80;;;;;;4983569;28;20042;-67
2023/08/31 05:35:48;;;;;;;5.35;1.48;;;19.10;73.60;;;;;;4986934;28;20110;-67
2023/08/31 05:38:13;;;;;;;9.60;1.70;;;19.10;73.50;;;;;;4984078;28;20030;-65
2023/08/31 05:40:39;;;;;;;10.15;2.00;;;19.10;73.80;;;;;;4982152;28;20122;-66
2023/08/31 05:43:05;;;;;;;5.97;2.50;;;19.10;74.80;;;;;;4984662;28;20034;-66
2023/08/31 05:45:34;;;;;;;12.45;2.80;;;19.10;74.80;;;;;;4981066;28;20046;-67
2023/08/31 05:48:00;;;;;;;9.80;3.03;;;19.20;75.10;;;;;;4984331;28;20038;-67
2023/08/31 05:50:26;;;;;;;9.40;2.28;;;19.10;74.60;;;;;;4984149;28;20031;-67
2023/08/31 05:52:51;;;;;;;7.50;2.08;;;19.20;74.70;;;;;;4985563;28;20033;-66
2023/08/31 05:55:17;;;;;;;5.32;2.20;;;19.20;74.20;;;;;;4977182;28;20026;-67
2023/08/31 05:57:42;;;;;;;3.75;1.90;;;19.20;74.30;;;;;;4984394;28;20476;-66
2023/08/31 06:00:09;;;;;;;5.75;2.05;;;19.20;74.00;;;;;;4982602;28;20430;-67
2023/08/31 06:02:35;;;;;;;7.15;1.80;;;19.20;74.00;;;;;;4981067;28;20042;-64
2023/08/31 06:05:01;;;;;;;9.23;1.73;;;19.20;74.10;;;;;;4981060;28;20027;-64
2023/08/31 06:07:28;;;;;;;4.18;1.40;;;19.20;74.00;;;;;;4979693;28;20034;-66
2023/08/31 06:09:54;;;;;;;5.55;1.80;;;19.20;73.70;;;;;;4984198;28;20053;-65
2023/08/31 06:12:20;;;;;;;5.88;2.33;;;19.20;73.70;;;;;;4978832;28;20026;-65
2023/08/31 06:14:45;;;;;;;3.92;2.15;;;19.20;73.70;;;;;;4982467;28;20418;-62
2023/08/31 06:17:12;;;;;;;3.03;1.70;;;19.20;73.50;;;;;;4983308;28;20023;-66
2023/08/31 06:19:38;;;;;;;5.70;2.03;;;19.10;73.70;;;;;;4982858;28;20445;-65
2023/08/31 06:22:04;;;;;;;4.82;1.75;;;19.10;73.70;;;;;;4981407;28;20034;-65
2023/08/31 06:24:32;;;;;;;2.30;1.52;;;19.20;73.70;;;;;;4980779;28;20143;-66
2023/08/31 06:26:57;;;;;;;4.80;2.08;;;19.20;73.70;;;;;;4982525;28;20539;-65
2023/08/31 06:29:23;;;;;;;4.38;1.73;;;19.20;73.60;;;;;;4984197;28;20030;-66
2023/08/31 06:31:48;;;;;;;4.85;2.20;;;19.20;73.50;;;;;;4966029;28;20042;-64
2023/08/31 06:34:14;;;;;;;3.25;2.20;;;19.20;73.20;;;;;;4980587;28;20094;-64
2023/08/31 06:36:39;;;;;;;5.45;2.72;;;19.20;73.30;;;;;;4980962;28;20057;-65
2023/08/31 06:39:06;;;;;;;8.98;3.10;;;19.20;73.30;;;;;;4980760;28;20065;-66
2023/08/31 06:41:32;;;;;;;7.22;2.70;;;19.20;73.40;;;;;;4983938;28;20045;-66
2023/08/31 06:43:57;;;;;;;9.85;3.60;;;19.20;73.60;;;;;;4983287;28;20090;-66
2023/08/31 06:46:23;;;;;;;7.43;2.67;;;19.20;73.40;;;;;;4983479;28;20117;-65
2023/08/31 06:48:49;;;;;;;3.40;2.03;;;19.20;72.90;;;;;;4982699;28;20050;-63
2023/08/31 06:51:15;;;;;;;7.18;2.85;;;19.10;72.60;;;;;;4984263;28;20456;-66
2023/08/31 06:53:43;;;;;;;3.38;2.13;;;19.10;72.10;;;;;;4983774;28;20035;-65
2023/08/31 06:56:08;;;;;;;3.55;2.75;;;19.20;72.10;;;;;;4982271;28;20037;-65
2023/08/31 06:58:34;;;;;;;8.05;3.42;;;19.10;72.00;;;;;;4983017;28;20038;-66
2023/08/31 07:01:00;;;;;;;5.57;3.25;;;19.20;71.80;;;;;;4982461;28;20508;-65
2023/08/31 07:03:25;;;;;;;11.27;5.78;;;19.20;72.10;;;;;;4980341;28;20026;-65
2023/08/31 07:05:51;;;;;;;10.57;7.10;;;19.20;72.40;;;;;;4964281;28;20235;-67
2023/08/31 07:08:16;;;;;;;14.68;6.85;;;19.20;72.60;;;;;;4981883;28;20577;-66
2023/08/31 07:10:41;;;;;;;14.20;6.97;;;19.20;72.50;;;;;;4982660;28;20030;-65
2023/08/31 07:13:07;;;;;;;13.32;6.00;;;19.20;72.50;;;;;;4982455;28;20035;-66
2023/08/31 07:15:33;;;;;;;15.07;6.10;;;19.20;72.60;;;;;;4980677;28;20133;-66
2023/08/31 07:17:58;;;;;;;15.63;6.28;;;19.20;72.80;;;;;;4983354;28;20034;-66
2023/08/31 07:20:24;;;;;;;8.90;5.05;;;19.20;72.40;;;;;;4980734;28;20125;-66
2023/08/31 07:22:50;;;;;;;10.48;5.10;;;19.20;72.60;;;;;;4977023;28;20065;-65
2023/08/31 07:25:15;;;;;;;9.60;4.93;;;19.20;72.80;;;;;;4975817;28;20042;-66
2023/08/31 07:27:41;;;;;;;12.15;4.70;;;19.20;72.50;;;;;;4983304;28;20681;-66
2023/08/31 07:30:07;;;;;;;8.93;3.85;;;19.20;72.60;;;;;;4982491;28;20084;-65
2023/08/31 07:32:32;;;;;;;8.48;3.58;;;19.20;73.00;;;;;;4970710;28;20425;-66
2023/08/31 07:34:59;;;;;;;6.28;3.53;;;19.20;73.10;;;;;;4982858;28;20149;-65
2023/08/31 07:37:24;;;;;;;5.75;3.63;;;19.20;72.90;;;;;;4980427;28;20034;-67
2023/08/31 07:39:50;;;;;;;5.88;3.17;;;19.10;72.40;;;;;;4977802;28;20038;-66
2023/08/31 07:42:16;;;;;;;6.43;3.47;;;19.10;72.30;;;;;;4953254;28;20085;-68
2023/08/31 07:44:43;;;;;;;6.22;3.28;;;19.10;72.20;;;;;;4982782;28;20031;-66
2023/08/31 07:47:08;;;;;;;6.68;2.97;;;19.10;71.80;;;;;;4977633;28;20045;-67
2023/08/31 07:49:34;;;;;;;5.57;3.15;;;19.10;70.70;;;;;;4979936;28;20050;-66
2023/08/31 07:51:59;;;;;;;4.13;2.70;;;19.10;71.10;;;;;;4981048;28;20383;-67
2023/08/31 07:54:25;;;;;;;4.20;2.72;;;19.10;71.20;;;;;;4960474;28;20055;-66
2023/08/31 07:56:51;;;;;;;6.78;2.92;;;19.00;70.20;;;;;;4974223;28;20026;-66
2023/08/31 07:59:17;;;;;;;3.00;2.65;;;19.10;70.40;;;;;;4956947;28;20100;-67
2023/08/31 08:01:43;;;;;;;4.32;2.50;;;19.00;69.60;;;;;;4984843;28;20545;-66
2023/08/31 08:04:11;;;;;;;4.32;2.75;;;19.10;69.60;;;;;;4980096;28;20026;-66
2023/08/31 08:06:36;;;;;;;8.15;2.38;;;19.00;69.90;;;;;;4981992;28;20043;-65
2023/08/31 08:09:02;;;;;;;4.22;2.10;;;19.00;69.40;;;;;;4983678;28;20030;-66
2023/08/31 08:11:27;;;;;;;4.47;2.65;;;19.00;69.40;;;;;;4978132;28;20505;-66
2023/08/31 08:13:53;;;;;;;3.22;2.53;;;19.00;68.50;;;;;;4972318;28;20045;-67
2023/08/31 08:16:18;;;;;;;5.45;2.60;;;19.00;68.80;;;;;;4976338;28;20110;-65
2023/08/31 08:18:44;;;;;;;5.85;2.60;;;19.00;68.10;;;;;;4982929;28;20065;-67
2023/08/31 08:21:09;;;;;;;3.13;2.15;;;19.00;67.90;;;;;;4976096;28;20038;-67
2023/08/31 08:23:35;;;;;;;3.50;2.30;;;19.00;68.60;;;;;;4982238;28;20062;-66
2023/08/31 08:26:00;;;;;;;2.10;1.70;;;19.00;69.30;;;;;;4983367;28;20665;-65
2023/08/31 08:28:28;;;;;;;3.58;2.30;;;19.10;69.00;;;;;;4980522;28;20022;-66
2023/08/31 08:30:54;;;;;;;3.40;2.05;;;19.00;68.30;;;;;;4953965;28;20097;-66
2023/08/31 08:33:19;;;;;;;7.20;2.60;;;19.10;69.90;;;;;;4984869;28;20047;-67
2023/08/31 08:35:45;;;;;;;3.33;2.25;;;19.00;68.60;;;;;;4980637;28;20030;-66
2023/08/31 08:38:11;;;;;;;6.40;2.60;;;19.00;68.60;;;;;;4961174;28;20037;-64
2023/08/31 08:40:37;;;;;;;2.28;2.08;;;19.00;68.20;;;;;;4964436;28;20030;-66
2023/08/31 08:43:05;;;;;;;2.47;2.20;;;19.00;67.80;;;;;;4981308;28;20393;-66
2023/08/31 08:45:37;;;;;;;1.90;1.63;;;19.10;68.00;;;;;;4981926;28;20133;-66
2023/08/31 08:48:05;;;;;;;3.15;2.00;;;19.00;67.50;;;;;;4983601;28;20086;-67
2023/08/31 08:50:33;;;;;;;4.70;2.17;;;19.00;66.60;;;;;;4982294;28;20033;-65
2023/08/31 08:53:02;;;;;;;3.78;2.05;;;19.00;67.60;;;;;;4983400;28;20118;-66
2023/08/31 08:55:27;;;;;;;4.05;2.25;;;19.00;67.10;;;;;;4981842;28;20026;-65
2023/08/31 08:57:53;;;;;;;5.03;2.47;;;19.00;67.20;;;;;;4964603;28;20018;-66
2023/08/31 09:00:19;;;;;;;4.93;2.20;;;19.00;67.30;;;;;;4980311;28;20026;-66
2023/08/31 09:02:45;;;;;;;3.78;1.92;;;19.00;67.00;;;;;;4981231;28;20030;-66
2023/08/31 09:05:11;;;;;;;5.53;2.15;;;19.10;67.50;;;;;;4979409;28;20057;-66
2023/08/31 09:07:37;;;;;;;2.83;2.13;;;19.00;67.80;;;;;;4978429;28;20470;-66
2023/08/31 09:10:04;;;;;;;4.97;1.90;;;19.00;67.10;;;;;;4980187;28;20027;-67
2023/08/31 09:12:29;;;;;;;3.60;2.92;;;19.00;67.70;;;;;;4979392;28;20077;-66
2023/08/31 09:15:04;;;;;;;3.50;1.92;;;19.00;67.10;;;;;;4984920;28;20046;-66
2023/08/31 09:17:47;;;;;;;2.90;2.20;;;19.00;67.10;;;;;;4984495;28;20034;-67
2023/08/31 09:20:13;;;;;;;3.30;2.45;;;19.00;67.10;;;;;;4984477;28;20023;-64
2023/08/31 09:22:42;;;;;;;3.38;1.70;;;19.00;66.80;;;;;;4983514;28;20054;-67
2023/08/31 09:25:09;;;;;;;3.25;2.25;;;19.00;66.90;;;;;;4968490;28;20030;-67
2023/08/31 09:27:38;;;;;;;3.53;1.75;;;19.00;66.50;;;;;;4984780;28;20041;-65
2023/08/31 09:30:05;;;;;;;3.40;2.40;;;19.00;66.90;;;;;;4984486;28;20112;-65
2023/08/31 09:32:31;;;;;;;3.45;2.03;;;19.00;66.70;;;;;;4984972;28;20502;-65
2023/08/31 09:34:56;;;;;;;2.95;2.13;;;19.00;66.60;;;;;;4983036;28;20109;-67
2023/08/31 09:37:22;;;;;;;3.90;2.15;;;19.00;66.10;;;;;;4986414;28;20041;-64
2023/08/31 09:39:47;;;;;;;3.00;2.20;;;18.90;66.40;;;;;;4980801;28;20045;-66
2023/08/31 09:42:13;;;;;;;3.50;1.90;;;19.00;66.30;;;;;;4986505;28;20034;-65
2023/08/31 09:44:49;;;;;;;2.95;2.03;;;18.90;66.50;;;;;;4985009;28;20508;-66
2023/08/31 09:47:17;;;;;;;4.78;1.83;;;18.90;66.60;;;;;;4986375;28;20049;-66
2023/08/31 09:49:43;;;;;;;6.50;2.15;;;19.00;65.40;;;;;;4984277;28;20038;-65
2023/08/31 09:52:09;;;;;;;3.83;2.08;;;19.00;66.40;;;;;;4985743;28;20022;-66
2023/08/31 09:54:36;;;;;;;16.75;2.25;;;19.00;66.80;;;;;;4984549;28;20034;-67
2023/08/31 09:57:02;;;;;;;4.88;2.40;;;19.00;66.60;;;;;;4986884;28;20392;-68
2023/08/31 09:59:29;;;;;;;3.33;2.08;;;19.00;67.00;;;;;;4983999;28;20504;-65
2023/08/31 10:01:56;;;;;;;3.47;1.67;;;19.10;67.10;;;;;;4985129;28;20125;-67
2023/08/31 10:04:22;;;;;;;4.93;2.30;;;19.00;66.90;;;;;;4980464;28;20030;-66
2023/08/31 10:06:49;;;;;;;2.60;1.90;;;19.10;66.90;;;;;;4983352;28;20545;-68
2023/08/31 10:09:15;;;;;;;3.33;1.70;;;19.10;67.00;;;;;;4985297;28;20058;-67
2023/08/31 10:11:42;;;;;;;3.50;1.90;;;19.10;66.90;;;;;;4981671;28;20027;-67
2023/08/31 10:14:10;;;;;;;2.58;1.90;;;19.10;67.20;;;;;;4985304;28;20034;-66
2023/08/31 10:16:39;;;;;;;3.53;1.77;;;19.10;67.20;;;;;;4985215;28;20034;-66
2023/08/31 10:19:04;;;;;;;6.32;2.20;;;19.10;67.00;;;;;;4985021;28;20066;-68
2023/08/31 10:21:30;;;;;;;2.60;1.70;;;19.10;67.20;;;;;;4967864;28;20077;-66
2023/08/31 10:23:55;;;;;;;5.65;1.95;;;19.10;67.30;;;;;;4983587;28;20128;-66
2023/08/31 10:26:28;;;;;;;5.45;2.65;;;19.00;67.30;;;;;;4983343;28;20034;-66
2023/08/31 10:28:55;;;;;;;5.82;1.98;;;19.10;67.70;;;;;;4977351;28;20404;-66
2023/08/31 10:31:24;;;;;;;2.83;1.90;;;19.10;67.90;;;;;;4982712;28;20030;-66
2023/08/31 10:33:58;;;;;;;2.80;2.08;;;19.00;67.80;;;;;;4984397;28;20271;-66
2023/08/31 10:36:35;;;;;;;3.67;1.75;;;19.00;67.80;;;;;;4986602;28;20173;-67
2023/08/31 10:39:05;;;;;;;4.22;2.35;;;19.00;68.00;;;;;;4974497;28;20027;-65
2023/08/31 10:41:35;;;;;;;2.40;1.95;;;19.10;68.00;;;;;;4984132;28;20034;-67
2023/08/31 10:44:01;;;;;;;3.63;2.03;;;19.00;67.90;;;;;;4986725;28;20467;-65
2023/08/31 10:46:41;;;;;;;2.60;2.05;;;19.00;67.90;;;;;;4979237;28;20041;-67
2023/08/31 10:49:10;;;;;;;1.52;1.25;;;19.00;68.00;;;;;;4976617;28;20030;-67
2023/08/31 10:51:41;;;;;;;2.95;1.50;;;19.00;67.70;;;;;;4971880;28;20042;-66
2023/08/31 10:54:20;;;;;;;1.73;1.45;;;19.10;68.10;;;;;;4982854;28;20423;-66
2023/08/31 10:57:07;;;;;;;2.85;1.70;;;19.10;67.90;;;;;;4984448;28;20034;-64
2023/08/31 10:59:53;;;;;;;3.78;1.73;;;19.10;68.00;;;;;;4985367;28;20092;-66
2023/08/31 11:02:41;;;;;;;3.38;1.63;;;19.10;68.00;;;;;;4980969;28;20084;-65
2023/08/31 11:05:11;;;;;;;2.55;1.73;;;19.10;68.10;;;;;;4978691;28;20038;-65
2023/08/31 11:07:40;;;;;;;3.47;1.65;;;19.10;68.50;;;;;;4984789;28;20509;-65
2023/08/31 11:10:52;;;;;;;3.55;2.00;;;19.10;67.50;;;;;;4978040;28;20480;-67
2023/08/31 11:13:19;;;;;;;3.17;1.70;;;19.10;67.80;;;;;;4972210;28;20185;-66
2023/08/31 11:15:48;;;;;;;2.05;1.42;;;19.00;66.70;;;;;;4964825;28;20135;-67
2023/08/31 11:18:17;;;;;;;4.40;1.85;;;19.00;66.60;;;;;;4985525;28;20405;-66
2023/08/31 11:20:43;;;;;;;4.20;1.73;;;19.00;65.30;;;;;;4977432;28;20035;-65
2023/08/31 11:23:09;;;;;;;2.28;1.67;;;19.00;66.60;;;;;;4979448;28;20058;-67
2023/08/31 11:25:34;;;;;;;3.50;1.83;;;19.10;66.60;;;;;;4983155;28;20501;-67
2023/08/31 11:28:04;;;;;;;4.20;1.92;;;19.00;67.10;;;;;;4982884;28;20117;-66
2023/08/31 11:30:31;;;;;;;3.05;1.50;;;19.10;66.50;;;;;;4983213;28;20046;-67
2023/08/31 11:32:57;;;;;;;2.67;1.70;;;19.00;66.60;;;;;;4983519;28;20552;-66
2023/08/31 11:35:24;;;;;;;3.20;1.60;;;19.00;66.00;;;;;;4980876;28;20058;-65
2023/08/31 11:37:52;;;;;;;2.85;1.52;;;19.00;66.60;;;;;;4980884;28;20701;-66
2023/08/31 11:40:18;;;;;;;1.60;1.30;;;19.00;66.30;;;;;;4980786;28;20514;-67
2023/08/31 11:42:44;;;;;;;3.47;1.60;;;19.10;66.10;;;;;;4978777;28;20568;-67
2023/08/31 11:45:12;;;;;;;3.03;1.80;;;19.10;66.80;;;;;;4982237;28;20564;-67
2023/08/31 11:47:39;;;;;;;2.50;1.58;;;19.00;65.50;;;;;;4982201;28;20108;-66
2023/08/31 11:50:06;;;;;;;1.60;1.50;;;19.10;66.60;;;;;;4978818;28;20151;-67
2023/08/31 11:52:32;;;;;;;4.15;1.60;;;19.00;66.20;;;;;;4964851;28;20488;-67
2023/08/31 11:54:58;;;;;;;2.28;1.45;;;19.10;66.30;;;;;;4983136;28;20038;-67
2023/08/31 11:57:28;;;;;;;3.05;1.40;;;19.10;66.40;;;;;;4984286;28;20133;-66
2023/08/31 11:59:55;;;;;;;3.03;1.70;;;19.10;66.20;;;;;;4959033;28;20146;-66
2023/08/31 12:02:20;;;;;;;2.85;1.52;;;19.00;66.20;;;;;;4982129;28;20084;-67
2023/08/31 12:04:46;;;;;;;3.47;1.60;;;19.10;66.60;;;;;;4980768;28;20046;-67
2023/08/31 12:07:18;;;;;;;2.33;1.60;;;19.10;66.70;;;;;;4985908;28;20044;-66
2023/08/31 12:09:48;;;;;;;2.15;1.38;;;19.00;66.20;;;;;;4979289;28;20100;-66
2023/08/31 12:12:15;;;;;;;2.30;1.50;;;19.00;66.10;;;;;;4982136;28;20569;-66
2023/08/31 12:14:41;;;;;;;2.83;1.40;;;19.00;65.10;;;;;;4976277;28;20054;-66
2023/08/31 12:17:08;;;;;;;3.05;1.50;;;19.10;66.10;;;;;;4979159;28;20027;-64
2023/08/31 12:19:37;;;;;;;2.38;1.45;;;19.10;65.50;;;;;;4964131;28;20031;-65
2023/08/31 12:22:02;;;;;;;2.17;1.38;;;19.10;65.80;;;;;;4981352;28;20038;-66
2023/08/31 12:24:28;;;;;;;4.25;1.88;;;19.10;65.30;;;;;;4984033;28;20041;-66
2023/08/31 12:26:54;;;;;;;4.78;1.65;;;19.10;65.30;;;;;;4979864;28;20046;-66
2023/08/31 12:29:20;;;;;;;4.05;1.23;;;19.00;63.50;;;;;;4984183;28;20026;-66
2023/08/31 12:31:46;;;;;;;3.13;1.33;;;19.00;65.40;;;;;;4980068;28;20121;-63
2023/08/31 12:34:11;;;;;;;3.45;1.15;;;19.10;65.50;;;;;;4984504;28;20526;-66
2023/08/31 12:36:38;;;;;;;3.00;1.40;;;19.00;65.20;;;;;;4978011;28;20048;-66
2023/08/31 12:39:06;;;;;;;2.53;1.50;;;19.00;65.00;;;;;;4980113;28;20038;-65
2023/08/31 12:41:32;;;;;;;2.03;1.27;;;19.00;64.80;;;;;;4980711;28;20158;-65
2023/08/31 12:43:58;;;;;;;2.83;1.30;;;19.10;64.00;;;;;;4968503;28;20113;-68